createdAt,value
2022-12-22T00:02:37.654Z,77.37
2022-12-22T00:06:00.395Z,77.54
2022-12-22T00:09:22.448Z,77.14
2022-12-22T00:12:43.742Z,77.92
2022-12-22T00:16:10.496Z,76.90
2022-12-22T00:19:32.789Z,77.16
2022-12-22T00:22:54.200Z,76.82
2022-12-22T00:26:18.619Z,76.38
2022-12-22T00:29:41.032Z,76.38
2022-12-22T00:33:04.310Z,77.15
2022-12-22T00:40:12.435Z,78.17
2022-12-22T00:43:33.086Z,77.41
2022-12-22T00:46:57.099Z,77.78
2022-12-22T00:50:19.718Z,77.00
2022-12-22T00:57:22.869Z,78.24
2022-12-22T01:00:46.528Z,78.00
2022-12-22T01:04:10.519Z,78.34
2022-12-22T01:07:34.866Z,76.69
2022-12-22T01:14:36.793Z,77.94
2022-12-22T01:17:57.192Z,78.26
2022-12-22T01:21:18.306Z,77.55
2022-12-22T01:24:40.470Z,78.13
2022-12-22T01:28:06.120Z,78.30
2022-12-22T01:31:37.517Z,78.28
2022-12-22T01:34:58.484Z,77.97
2022-12-22T01:38:20.729Z,79.15
2022-12-22T01:41:44.800Z,79.42
2022-12-22T01:45:05.832Z,79.36
2022-12-22T01:48:31.837Z,80.26
2022-12-22T01:51:52.306Z,80.80
2022-12-22T01:55:23.301Z,80.12
2022-12-22T01:58:48.684Z,79.32
2022-12-22T02:02:09.288Z,79.25
2022-12-22T02:05:34.294Z,79.41
2022-12-22T02:09:00.149Z,78.99
2022-12-22T02:12:28.577Z,79.39
2022-12-22T02:16:02.250Z,78.91
2022-12-22T02:19:30.288Z,77.90
2022-12-22T02:23:01.970Z,79.43
2022-12-22T02:26:49.093Z,78.80
2022-12-22T02:30:13.097Z,79.43
2022-12-22T02:33:33.757Z,79.20
2022-12-22T02:37:05.266Z,79.73
2022-12-22T02:40:41.497Z,79.97
2022-12-22T02:44:20.530Z,80.13
2022-12-22T02:47:48.204Z,78.50
2022-12-22T02:51:14.944Z,80.31
2022-12-22T02:54:36.863Z,79.80
2022-12-22T02:57:58.689Z,79.61
2022-12-22T03:05:04.110Z,79.25
2022-12-22T03:08:26.025Z,78.43
2022-12-22T03:11:46.915Z,78.40
2022-12-22T03:15:08.647Z,78.95
2022-12-22T03:18:32.990Z,78.69
2022-12-22T03:21:53.250Z,78.75
2022-12-22T03:25:15.491Z,78.56
2022-12-22T03:28:21.707Z,80.10
2022-12-22T03:31:26.265Z,79.23
2022-12-22T03:34:30.924Z,79.78
2022-12-22T03:37:37.601Z,78.94
2022-12-22T03:40:44.528Z,78.78
2022-12-22T03:47:35.500Z,79.68
2022-12-22T03:50:42.904Z,78.85
2022-12-22T03:53:47.868Z,78.54
2022-12-22T03:56:54.436Z,79.29
2022-12-22T03:59:59.088Z,78.84
2022-12-22T04:03:03.911Z,78.72
2022-12-22T04:06:08.815Z,80.08
2022-12-22T04:09:15.151Z,78.83
2022-12-22T04:12:35.983Z,79.59
2022-12-22T04:15:40.879Z,79.43
2022-12-22T04:18:44.177Z,79.68
2022-12-22T04:21:50.539Z,79.19
2022-12-22T04:25:02.248Z,79.85
2022-12-22T04:28:10.149Z,79.50
2022-12-22T04:31:16.131Z,80.50
2022-12-22T04:34:19.473Z,80.27
2022-12-22T04:37:25.409Z,81.08
2022-12-22T04:40:29.131Z,81.53
2022-12-22T04:43:33.535Z,80.66
2022-12-22T04:46:36.946Z,81.10
2022-12-22T04:49:41.821Z,80.70
2022-12-22T04:52:48.625Z,80.87
2022-12-22T04:55:58.074Z,80.57
2022-12-22T04:59:03.849Z,81.15
2022-12-22T05:02:08.409Z,81.28
2022-12-22T05:05:14.644Z,81.07
2022-12-22T05:08:23.474Z,80.51
2022-12-22T05:11:26.909Z,80.71
2022-12-22T05:14:40.362Z,80.32
2022-12-22T05:17:50.305Z,79.90
2022-12-22T05:20:58.872Z,80.04
2022-12-22T05:24:05.163Z,79.67
2022-12-22T05:27:10.839Z,79.57
2022-12-22T05:30:16.474Z,80.01
2022-12-22T05:33:21.290Z,80.07
2022-12-22T05:36:25.060Z,80.38
2022-12-22T05:39:31.213Z,80.24
2022-12-22T05:42:37.988Z,80.22
2022-12-22T05:49:07.357Z,80.29
2022-12-22T05:52:10.881Z,80.10
2022-12-22T05:55:20.808Z,81.84
2022-12-22T05:58:25.745Z,81.50
2022-12-22T06:01:29.032Z,81.89
2022-12-22T06:04:43.649Z,81.87
2022-12-22T06:07:46.881Z,81.79
2022-12-22T06:10:51.843Z,80.12
2022-12-22T06:13:56.353Z,80.78
2022-12-22T06:16:59.625Z,80.50
2022-12-22T06:20:05.182Z,80.82
2022-12-22T06:23:08.688Z,80.53
2022-12-22T06:26:16.504Z,80.15
2022-12-22T06:29:24.747Z,81.25
2022-12-22T06:32:27.991Z,80.74
2022-12-22T06:35:32.658Z,80.55
2022-12-22T06:38:36.215Z,79.82
2022-12-22T06:42:00.058Z,79.31
2022-12-22T06:45:05.218Z,80.48
2022-12-22T06:48:12.936Z,81.22
2022-12-22T06:51:20.931Z,80.63
2022-12-22T06:54:29.145Z,80.99
2022-12-22T06:57:34.068Z,81.37
2022-12-22T07:00:40.131Z,81.19
2022-12-22T07:03:45.235Z,81.51
2022-12-22T07:06:50.384Z,81.88
2022-12-22T07:09:55.711Z,81.67
2022-12-22T07:13:19.367Z,80.93
2022-12-22T07:16:24.385Z,80.90
2022-12-22T07:19:27.578Z,79.73
2022-12-22T07:22:32.834Z,80.32
2022-12-22T07:25:40.655Z,80.20
2022-12-22T07:28:46.054Z,80.27
2022-12-22T07:31:51.044Z,80.94
2022-12-22T07:34:57.677Z,79.93
2022-12-22T07:38:03.375Z,81.52
2022-12-22T07:41:29.748Z,80.74
2022-12-22T07:44:35.026Z,80.61
2022-12-22T07:47:39.687Z,80.71
2022-12-22T07:50:44.774Z,81.33
2022-12-22T07:53:51.078Z,81.05
2022-12-22T07:56:57.354Z,81.85
2022-12-22T08:00:02.597Z,81.28
2022-12-22T08:03:10.540Z,82.34
2022-12-22T08:06:16.794Z,82.82
2022-12-22T08:09:24.335Z,82.55
2022-12-22T08:12:29.482Z,82.33
2022-12-22T08:15:38.389Z,82.92
2022-12-22T08:18:48.657Z,83.43
2022-12-22T08:21:56.068Z,83.36
2022-12-22T08:25:01.582Z,81.79
2022-12-22T08:28:06.783Z,83.12
2022-12-22T08:31:12.449Z,83.53
2022-12-22T08:34:21.516Z,83.83
2022-12-22T08:37:32.826Z,82.13
2022-12-22T08:40:42.014Z,83.01
2022-12-22T08:43:46.570Z,84.24
2022-12-22T08:46:55.263Z,83.71
2022-12-22T08:50:03.028Z,83.28
2022-12-22T08:53:23.751Z,84.14
2022-12-22T08:56:37.876Z,82.50
2022-12-22T08:59:41.070Z,83.65
2022-12-22T09:02:47.293Z,83.13
2022-12-22T09:05:50.714Z,84.68
2022-12-22T09:12:17.679Z,84.34
2022-12-22T09:15:22.229Z,84.25
2022-12-22T09:18:27.341Z,83.93
2022-12-22T09:21:39.529Z,82.11
2022-12-22T09:28:08.294Z,83.46
2022-12-22T09:31:16.748Z,82.63
2022-12-22T09:34:21.974Z,82.52
2022-12-22T09:37:30.530Z,82.40
2022-12-22T09:40:35.610Z,83.58
2022-12-22T09:43:41.076Z,82.60
2022-12-22T09:46:46.021Z,82.27
2022-12-22T09:53:24.135Z,82.60
2022-12-22T09:56:30.169Z,83.68
2022-12-22T09:59:39.717Z,82.97
2022-12-22T10:02:53.208Z,82.70
2022-12-22T10:06:10.922Z,83.75
2022-12-22T10:09:46.202Z,83.23
2022-12-22T10:16:19.940Z,84.73
2022-12-22T10:19:29.735Z,83.63
2022-12-22T10:22:48.489Z,83.06
2022-12-22T10:29:33.864Z,83.17
2022-12-22T10:32:38.439Z,83.89
2022-12-22T10:36:06.984Z,84.53
2022-12-22T10:39:13.709Z,85.00
2022-12-22T10:42:20.913Z,83.48
2022-12-22T10:45:27.820Z,84.58
2022-12-22T10:48:35.507Z,84.24
2022-12-22T10:51:41.127Z,84.67
2022-12-22T10:54:47.827Z,85.03
2022-12-22T10:57:52.390Z,84.69
2022-12-22T11:01:03.791Z,84.75
2022-12-22T11:04:19.090Z,84.05
2022-12-22T11:07:23.112Z,84.91
2022-12-22T11:10:38.226Z,84.49
2022-12-22T11:13:59.860Z,84.45
2022-12-22T11:17:13.558Z,84.69
2022-12-22T11:20:48.779Z,84.05
2022-12-22T11:24:06.248Z,83.44
2022-12-22T11:27:25.905Z,84.13
2022-12-22T11:30:38.489Z,84.20
2022-12-22T11:33:51.547Z,83.62
2022-12-22T11:37:04.817Z,82.83
2022-12-22T11:40:31.059Z,83.78
2022-12-22T11:43:47.327Z,83.94
2022-12-22T11:47:03.359Z,84.01
2022-12-22T11:51:01.265Z,83.82
2022-12-22T11:54:14.713Z,84.19
2022-12-22T11:57:29.785Z,83.92
2022-12-22T12:01:14.044Z,83.92
2022-12-22T12:04:43.964Z,82.90
2022-12-22T12:07:52.121Z,83.61
2022-12-22T12:11:07.435Z,83.39
2022-12-22T12:14:23.108Z,83.96
2022-12-22T12:17:38.627Z,84.54
2022-12-22T12:20:58.883Z,84.10
2022-12-22T12:24:42.781Z,83.72
2022-12-22T12:28:08.429Z,83.79
2022-12-22T12:31:24.316Z,84.10
2022-12-22T12:34:34.819Z,84.79
2022-12-22T12:37:40.483Z,84.52
2022-12-22T12:40:51.644Z,83.72
2022-12-22T12:43:57.054Z,84.21
2022-12-22T12:47:10.624Z,84.31
2022-12-22T12:50:33.971Z,84.80
2022-12-22T12:53:36.684Z,84.95
2022-12-22T12:56:56.238Z,84.87
2022-12-22T13:00:00.582Z,84.74
2022-12-22T13:03:04.724Z,84.58
2022-12-22T13:06:10.859Z,85.17
2022-12-22T13:09:49.117Z,85.32
2022-12-22T13:12:51.647Z,85.44
2022-12-22T13:16:39.104Z,84.96
2022-12-22T13:19:42.257Z,85.59
2022-12-22T13:22:47.111Z,85.33
2022-12-22T13:25:54.739Z,85.89
2022-12-22T13:29:00.151Z,86.10
2022-12-22T13:32:04.925Z,86.00
2022-12-22T13:35:35.502Z,85.47
2022-12-22T13:38:41.462Z,85.60
2022-12-22T13:41:47.432Z,85.30
2022-12-22T13:44:50.310Z,85.86
2022-12-22T13:47:53.795Z,85.36
2022-12-22T13:51:01.201Z,85.79
2022-12-22T13:54:14.281Z,86.46
2022-12-22T13:57:22.388Z,86.30
2022-12-22T14:00:27.885Z,86.62
2022-12-22T14:03:58.649Z,86.66
2022-12-22T14:06:55.477Z,86.60
2022-12-22T14:10:00.272Z,86.80
2022-12-22T14:13:08.808Z,87.22
2022-12-22T14:16:14.695Z,87.64
2022-12-22T14:19:19.924Z,87.89
2022-12-22T14:22:27.100Z,88.20
2022-12-22T14:25:34.598Z,88.08
2022-12-22T14:28:44.439Z,86.61
2022-12-22T14:31:58.818Z,86.63
2022-12-22T14:35:01.696Z,87.23
2022-12-22T14:38:21.341Z,87.08
2022-12-22T14:41:45.021Z,87.68
2022-12-22T14:44:50.317Z,87.74
2022-12-22T14:47:54.924Z,88.48
2022-12-22T14:50:58.267Z,88.38
2022-12-22T14:54:03.619Z,88.36
2022-12-22T14:57:16.243Z,88.02
2022-12-22T15:00:32.257Z,86.96
2022-12-22T15:03:38.118Z,87.75
2022-12-22T15:06:45.541Z,88.12
2022-12-22T15:10:14.389Z,87.92
2022-12-22T15:13:22.639Z,87.99
2022-12-22T15:16:26.694Z,87.74
2022-12-22T15:19:32.134Z,88.26
2022-12-22T15:22:34.909Z,88.06
2022-12-22T15:25:37.631Z,87.49
2022-12-22T15:28:43.173Z,87.51
2022-12-22T15:31:46.222Z,87.99
2022-12-22T15:34:49.867Z,87.07
2022-12-22T15:37:52.626Z,86.76
2022-12-22T15:40:56.402Z,86.19
2022-12-22T15:44:01.664Z,85.22
2022-12-22T15:47:04.996Z,85.50
2022-12-22T15:50:15.041Z,86.34
2022-12-22T15:53:21.045Z,85.55
2022-12-22T15:56:26.468Z,85.54
2022-12-22T15:59:32.508Z,86.54
2022-12-22T16:02:36.630Z,85.66
2022-12-22T16:05:42.322Z,85.60
2022-12-22T16:08:50.763Z,86.13
2022-12-22T16:11:54.304Z,86.36
2022-12-22T16:15:04.880Z,86.26
2022-12-22T16:18:09.770Z,86.89
2022-12-22T16:21:17.980Z,86.02
2022-12-22T16:24:31.758Z,86.61
2022-12-22T16:27:36.688Z,86.06
2022-12-22T16:30:42.391Z,85.14
2022-12-22T16:33:48.322Z,85.86
2022-12-22T16:36:51.446Z,85.26
2022-12-22T16:39:55.619Z,85.48
2022-12-22T16:46:26.616Z,85.75
2022-12-22T16:49:30.020Z,85.62
2022-12-22T16:52:39.428Z,86.76
2022-12-22T16:55:43.456Z,85.81
2022-12-22T16:58:48.352Z,86.89
2022-12-22T17:01:57.210Z,86.05
2022-12-22T17:05:03.569Z,86.49
2022-12-22T17:08:08.513Z,86.51
2022-12-22T17:11:20.490Z,85.58
2022-12-22T17:14:31.058Z,85.37
2022-12-22T17:17:41.933Z,85.64
2022-12-22T17:20:47.711Z,84.44
2022-12-22T17:23:52.926Z,86.11
2022-12-22T17:26:57.891Z,85.37
2022-12-22T17:30:06.162Z,85.04
2022-12-22T17:33:17.805Z,84.63
2022-12-22T17:36:33.154Z,85.42
2022-12-22T17:39:38.742Z,85.59
2022-12-22T17:42:42.129Z,85.20
2022-12-22T17:45:46.888Z,85.54
2022-12-22T17:48:53.023Z,85.52
2022-12-22T17:51:56.079Z,86.09
2022-12-22T17:55:00.315Z,85.62
2022-12-22T17:58:05.089Z,86.52
2022-12-22T18:01:11.251Z,86.70
2022-12-22T18:04:16.995Z,86.88
2022-12-22T18:07:24.920Z,86.12
2022-12-22T18:10:31.036Z,85.59
2022-12-22T18:13:38.101Z,85.75
2022-12-22T18:16:41.303Z,86.25
2022-12-22T18:19:47.034Z,87.11
2022-12-22T18:22:53.327Z,86.97
2022-12-22T18:25:58.634Z,86.51
2022-12-22T18:29:01.813Z,87.02
2022-12-22T18:32:06.291Z,86.74
2022-12-22T18:35:12.257Z,86.25
2022-12-22T18:38:27.045Z,86.05
2022-12-22T18:41:34.711Z,85.33
2022-12-22T18:44:38.745Z,84.10
2022-12-22T18:47:41.497Z,84.90
2022-12-22T18:50:46.965Z,85.48
2022-12-22T18:53:52.371Z,85.82
2022-12-22T18:56:55.657Z,85.65
2022-12-22T18:59:59.929Z,84.92
2022-12-22T19:03:04.176Z,85.43
2022-12-22T19:06:12.161Z,85.60
2022-12-22T19:09:16.513Z,85.08
2022-12-22T19:12:24.214Z,86.03
2022-12-22T19:15:32.133Z,85.49
2022-12-22T19:18:34.911Z,85.28
2022-12-22T19:21:39.162Z,85.83
2022-12-22T19:24:45.128Z,85.60
2022-12-22T19:27:51.104Z,85.21
2022-12-22T19:30:55.563Z,85.23
2022-12-22T19:34:01.345Z,85.13
2022-12-22T19:37:05.787Z,84.00
2022-12-22T19:40:10.336Z,84.70
2022-12-22T19:43:13.650Z,84.00
2022-12-22T19:46:18.802Z,84.32
2022-12-22T19:49:23.766Z,83.87
2022-12-22T19:52:28.309Z,84.11
2022-12-22T19:55:35.449Z,83.94
2022-12-22T19:58:41.375Z,83.64
2022-12-22T20:01:46.768Z,83.68
2022-12-22T20:04:50.449Z,83.08
2022-12-22T20:11:21.285Z,83.54
2022-12-22T20:14:25.665Z,83.58
2022-12-22T20:17:28.672Z,82.85
2022-12-22T20:20:35.831Z,82.98
2022-12-22T20:23:40.915Z,82.98
2022-12-22T20:26:47.285Z,83.01
2022-12-22T20:29:54.162Z,83.22
2022-12-22T20:32:57.230Z,83.28
2022-12-22T20:36:03.375Z,83.74
2022-12-22T20:39:14.368Z,83.27
2022-12-22T20:42:19.825Z,83.15
2022-12-22T20:45:23.160Z,83.10
2022-12-22T20:48:32.621Z,83.75
2022-12-22T20:51:35.711Z,83.36
2022-12-22T20:54:39.896Z,83.76
2022-12-22T20:57:42.832Z,84.04
2022-12-22T21:00:46.007Z,84.49
2022-12-22T21:03:48.875Z,84.00
2022-12-22T21:10:27.189Z,84.14
2022-12-22T21:13:29.931Z,83.48
2022-12-22T21:16:34.313Z,84.10
2022-12-22T21:19:37.205Z,83.76
2022-12-22T21:22:41.317Z,84.00
2022-12-22T21:25:47.056Z,83.75
2022-12-22T21:32:16.252Z,83.66
2022-12-22T21:35:21.727Z,83.51
2022-12-22T21:38:28.003Z,83.96
2022-12-22T21:45:26.706Z,84.04
2022-12-22T21:48:31.074Z,83.92
2022-12-22T21:51:34.027Z,83.78
2022-12-22T21:54:37.088Z,84.20
2022-12-22T21:57:42.950Z,83.57
2022-12-22T22:00:49.701Z,83.50
2022-12-22T22:03:56.820Z,83.51
2022-12-22T22:07:02.581Z,84.13
2022-12-22T22:10:07.938Z,84.24
2022-12-22T22:13:17.498Z,83.78
2022-12-22T22:16:22.108Z,84.24
2022-12-22T22:19:25.110Z,83.70
2022-12-22T22:22:28.104Z,83.68
2022-12-22T22:25:31.123Z,83.41
2022-12-22T22:28:37.720Z,82.68
2022-12-22T22:31:41.964Z,83.17
2022-12-22T22:34:46.595Z,83.27
2022-12-22T22:37:55.224Z,82.85
2022-12-22T22:40:59.768Z,83.35
2022-12-22T22:44:04.337Z,82.83
2022-12-22T22:47:07.465Z,83.31
2022-12-22T22:50:11.976Z,82.80
2022-12-22T22:53:17.051Z,83.08
2022-12-22T22:56:23.719Z,83.41
2022-12-22T23:06:17.615Z,82.52
2022-12-22T23:09:24.754Z,81.07
2022-12-22T23:12:30.545Z,80.51
2022-12-22T23:15:35.849Z,78.68
2022-12-22T23:18:39.995Z,80.22
2022-12-22T23:21:42.810Z,78.64
2022-12-22T23:24:46.780Z,76.15
2022-12-22T23:27:50.744Z,79.52
2022-12-22T23:30:56.111Z,80.03
2022-12-22T23:34:00.424Z,78.02
2022-12-22T23:37:04.075Z,79.33
2022-12-22T23:40:50.306Z,76.88
2022-12-22T23:43:32.435Z,78.45
2022-12-22T23:46:36.608Z,76.40
2022-12-22T23:53:00.873Z,78.04
2022-12-22T23:56:03.954Z,77.76
2022-12-22T23:59:06.790Z,74.97
